Missouri River (Missouri), Glasgow (06906500)

StateMissouriLatestUnknown (77300 cfs)
RiverMissouri RiverRatingObservedEstimated
Updated2020-02-25 20:30 (1 hour ago)Flood - The river is flooding. Obstacles can be treacherous or deadly. The river should be avoided at this stage for casual trips and definitely for the inexperienced. Trips should be attempted only with protective gear and equipment.Flood(none)(none)
Discharge77300 cfs (median: 44500 cfs)High - The river is high and potentially dangerous, especially for the young and / or inexperienced. Normal stream obstacles are sometimes difficult to navigate. Extended distances can be attempted, but canoe travel may not be advisable.High(none)(none)
Height16.06 feetGood - Conditions are ideal for a canoe or kayak. Boats typically will drag on fewer than one-quarter of riffles, if at all, and portages are unnecessary or rare. Normal float lengths can be attempted without a problem.Good(none)(none)
TrendRising (rising over 24 hours)Low - River is low but can still be floated. Some riffles are okay but most come with significant dragging and might need a portage. Float lengths should be reduced to accommodate low flow, dragging, and portages.Low(none)(none)
USGSExternal icon USGS Site (External icon Google Maps)Poor - River is too low to float comfortably. Most or all riffles will drag or must be portaged and some obstacles (such as slick shelf rock) cause undue problems. Avoid the river at this stage for casual paddling trips.Poor(none)(none)

Trending Data

Plot Image

Trips for Missouri River (Missouri), Glasgow (06906500)

DateStartEndDistanceConditionDischargeHeightFishingDetails

A total of 0 rows are displayed.

Condition Descriptions

Fishing Conditions

Fish Species

Notes

Classic Trip List

The classic River Trips application is still available for use. It is updated with the new system using a data retrofit. It is no longer maintained. The original River Trips application is no longer updated (as of 1 Dec 2016) but can be checked for errors or for the condition of the data before it was converted to the new system.

Gauge Data Table

ObservationHeightDischargeMaximum
Discharge
Minimum
Discharge
Mean
Discharge
P05P10P20P25P50
(Median)
P75P80P90P95
2020-02-25 20:30 16.06 77300 117000 (2019) 23000 (2006) 52100 23000 23500 33700 35000 44500 74200 78300 95200 117000
2020-02-25 19:30 15.97 76600 117000 (2019) 23000 (2006) 52100 23000 23500 33700 35000 44500 74200 78300 95200 117000
2020-02-25 18:30 16.01 76900 117000 (2019) 23000 (2006) 52100 23000 23500 33700 35000 44500 74200 78300 95200 117000
2020-02-25 17:30 15.99 76800 117000 (2019) 23000 (2006) 52100 23000 23500 33700 35000 44500 74200 78300 95200 117000
2020-02-25 16:30 15.97 76600 117000 (2019) 23000 (2006) 52100 23000 23500 33700 35000 44500 74200 78300 95200 117000
2020-02-25 15:30 15.93 76300 117000 (2019) 23000 (2006) 52100 23000 23500 33700 35000 44500 74200 78300 95200 117000
2020-02-25 14:30 15.91 76200 117000 (2019) 23000 (2006) 52100 23000 23500 33700 35000 44500 74200 78300 95200 117000
2020-02-25 13:30 15.89 76000 117000 (2019) 23000 (2006) 52100 23000 23500 33700 35000 44500 74200 78300 95200 117000
2020-02-25 12:30 15.87 75800 117000 (2019) 23000 (2006) 52100 23000 23500 33700 35000 44500 74200 78300 95200 117000
2020-02-25 11:30 15.87 75800 117000 (2019) 23000 (2006) 52100 23000 23500 33700 35000 44500 74200 78300 95200 117000
2020-02-25 10:30 15.87 75800 117000 (2019) 23000 (2006) 52100 23000 23500 33700 35000 44500 74200 78300 95200 117000
2020-02-25 09:30 15.81 75400 117000 (2019) 23000 (2006) 52100 23000 23500 33700 35000 44500 74200 78300 95200 117000
2020-02-25 08:30 15.83 75500 117000 (2019) 23000 (2006) 52100 23000 23500 33700 35000 44500 74200 78300 95200 117000
2020-02-25 07:30 15.80 75300 117000 (2019) 23000 (2006) 52100 23000 23500 33700 35000 44500 74200 78300 95200 117000
2020-02-25 06:30 15.81 75400 117000 (2019) 23000 (2006) 52100 23000 23500 33700 35000 44500 74200 78300 95200 117000
2020-02-25 05:30 15.76 75000 117000 (2019) 23000 (2006) 52100 23000 23500 33700 35000 44500 74200 78300 95200 117000
2020-02-25 04:30 15.74 74800 117000 (2019) 23000 (2006) 52100 23000 23500 33700 35000 44500 74200 78300 95200 117000
2020-02-25 03:30 15.70 74500 117000 (2019) 23000 (2006) 52100 23000 23500 33700 35000 44500 74200 78300 95200 117000
2020-02-25 02:30 15.71 74600 117000 (2019) 23000 (2006) 52100 23000 23500 33700 35000 44500 74200 78300 95200 117000
2020-02-25 01:30 15.70 74500 117000 (2019) 23000 (2006) 52100 23000 23500 33700 35000 44500 74200 78300 95200 117000
2020-02-25 00:30 15.65 74100 117000 (2019) 23000 (2006) 52100 23000 23500 33700 35000 44500 74200 78300 95200 117000
2020-02-24 23:30 15.62 73900 102000 (2011) 23300 (2003) 48300 23300 23500 32800 35300 44300 50100 50700 97200 102000
2020-02-24 22:30 15.60 73800 102000 (2011) 23300 (2003) 48300 23300 23500 32800 35300 44300 50100 50700 97200 102000
2020-02-24 21:30 15.64 74100 102000 (2011) 23300 (2003) 48300 23300 23500 32800 35300 44300 50100 50700 97200 102000
2020-02-24 20:30 15.66 74200 102000 (2011) 23300 (2003) 48300 23300 23500 32800 35300 44300 50100 50700 97200 102000
2020-02-24 19:30 15.60 73800 102000 (2011) 23300 (2003) 48300 23300 23500 32800 35300 44300 50100 50700 97200 102000
2020-02-24 18:30 15.62 73900 102000 (2011) 23300 (2003) 48300 23300 23500 32800 35300 44300 50100 50700 97200 102000
2020-02-24 17:30 15.61 73800 102000 (2011) 23300 (2003) 48300 23300 23500 32800 35300 44300 50100 50700 97200 102000
2020-02-24 16:30 15.63 74000 102000 (2011) 23300 (2003) 48300 23300 23500 32800 35300 44300 50100 50700 97200 102000
2020-02-24 15:30 15.67 74300 102000 (2011) 23300 (2003) 48300 23300 23500 32800 35300 44300 50100 50700 97200 102000
2020-02-24 14:30 15.69 74400 102000 (2011) 23300 (2003) 48300 23300 23500 32800 35300 44300 50100 50700 97200 102000
2020-02-24 13:30 15.67 74300 102000 (2011) 23300 (2003) 48300 23300 23500 32800 35300 44300 50100 50700 97200 102000
2020-02-24 12:30 15.65 74100 102000 (2011) 23300 (2003) 48300 23300 23500 32800 35300 44300 50100 50700 97200 102000
2020-02-24 11:30 15.67 74300 102000 (2011) 23300 (2003) 48300 23300 23500 32800 35300 44300 50100 50700 97200 102000
2020-02-24 10:30 15.73 74800 102000 (2011) 23300 (2003) 48300 23300 23500 32800 35300 44300 50100 50700 97200 102000
2020-02-24 09:30 15.71 74600 102000 (2011) 23300 (2003) 48300 23300 23500 32800 35300 44300 50100 50700 97200 102000
2020-02-24 08:30 15.75 74900 102000 (2011) 23300 (2003) 48300 23300 23500 32800 35300 44300 50100 50700 97200 102000
2020-02-24 07:30 15.79 75200 102000 (2011) 23300 (2003) 48300 23300 23500 32800 35300 44300 50100 50700 97200 102000
2020-02-24 06:30 15.80 75300 102000 (2011) 23300 (2003) 48300 23300 23500 32800 35300 44300 50100 50700 97200 102000
2020-02-24 05:30 15.81 75400 102000 (2011) 23300 (2003) 48300 23300 23500 32800 35300 44300 50100 50700 97200 102000
2020-02-24 04:30 15.84 75600 102000 (2011) 23300 (2003) 48300 23300 23500 32800 35300 44300 50100 50700 97200 102000
2020-02-24 03:30 15.86 75800 102000 (2011) 23300 (2003) 48300 23300 23500 32800 35300 44300 50100 50700 97200 102000
2020-02-24 02:30 15.90 76100 102000 (2011) 23300 (2003) 48300 23300 23500 32800 35300 44300 50100 50700 97200 102000
2020-02-24 01:30 15.92 76200 102000 (2011) 23300 (2003) 48300 23300 23500 32800 35300 44300 50100 50700 97200 102000
2020-02-24 00:30 15.95 76500 102000 (2011) 23300 (2003) 48300 23300 23500 32800 35300 44300 50100 50700 97200 102000
2020-02-23 23:30 15.97 76600 105000 (2011) 23700 (2003) 46800 23700 24600 35300 35500 41500 54400 58200 79700 105000
2020-02-23 22:30 16.01 76900 105000 (2011) 23700 (2003) 46800 23700 24600 35300 35500 41500 54400 58200 79700 105000
2020-02-23 21:30 16.04 77200 105000 (2011) 23700 (2003) 46800 23700 24600 35300 35500 41500 54400 58200 79700 105000
2020-02-23 20:30 16.08 77500 105000 (2011) 23700 (2003) 46800 23700 24600 35300 35500 41500 54400 58200 79700 105000
2020-02-23 19:30 16.08 77500 105000 (2011) 23700 (2003) 46800 23700 24600 35300 35500 41500 54400 58200 79700 105000
2020-02-23 18:30 16.11 77700 105000 (2011) 23700 (2003) 46800 23700 24600 35300 35500 41500 54400 58200 79700 105000
2020-02-23 17:30 16.13 77900 105000 (2011) 23700 (2003) 46800 23700 24600 35300 35500 41500 54400 58200 79700 105000
2020-02-23 16:30 16.17 78200 105000 (2011) 23700 (2003) 46800 23700 24600 35300 35500 41500 54400 58200 79700 105000
2020-02-23 15:30 16.21 78500 105000 (2011) 23700 (2003) 46800 23700 24600 35300 35500 41500 54400 58200 79700 105000
2020-02-23 14:30 16.21 78500 105000 (2011) 23700 (2003) 46800 23700 24600 35300 35500 41500 54400 58200 79700 105000
2020-02-23 13:30 16.27 79000 105000 (2011) 23700 (2003) 46800 23700 24600 35300 35500 41500 54400 58200 79700 105000
2020-02-23 12:30 16.32 79400 105000 (2011) 23700 (2003) 46800 23700 24600 35300 35500 41500 54400 58200 79700 105000
2020-02-23 11:30 16.33 79500 105000 (2011) 23700 (2003) 46800 23700 24600 35300 35500 41500 54400 58200 79700 105000
2020-02-23 10:30 16.31 79300 105000 (2011) 23700 (2003) 46800 23700 24600 35300 35500 41500 54400 58200 79700 105000
2020-02-23 09:30 16.37 79800 105000 (2011) 23700 (2003) 46800 23700 24600 35300 35500 41500 54400 58200 79700 105000
2020-02-23 08:30 16.39 80000 105000 (2011) 23700 (2003) 46800 23700 24600 35300 35500 41500 54400 58200 79700 105000
2020-02-23 07:30 16.45 80500 105000 (2011) 23700 (2003) 46800 23700 24600 35300 35500 41500 54400 58200 79700 105000
2020-02-23 06:30 16.47 80600 105000 (2011) 23700 (2003) 46800 23700 24600 35300 35500 41500 54400 58200 79700 105000
2020-02-23 05:30 16.48 80700 105000 (2011) 23700 (2003) 46800 23700 24600 35300 35500 41500 54400 58200 79700 105000
2020-02-23 04:30 16.51 81000 105000 (2011) 23700 (2003) 46800 23700 24600 35300 35500 41500 54400 58200 79700 105000
2020-02-23 03:30 16.53 81100 105000 (2011) 23700 (2003) 46800 23700 24600 35300 35500 41500 54400 58200 79700 105000
2020-02-23 02:30 16.55 81300 105000 (2011) 23700 (2003) 46800 23700 24600 35300 35500 41500 54400 58200 79700 105000
2020-02-23 01:30 16.61 81800 105000 (2011) 23700 (2003) 46800 23700 24600 35300 35500 41500 54400 58200 79700 105000
2020-02-23 00:30 16.64 82000 105000 (2011) 23700 (2003) 46800 23700 24600 35300 35500 41500 54400 58200 79700 105000
2020-02-22 23:30 16.64 82000 109000 (2011) 23900 (2003) 47100 23900 24600 35300 35900 44500 54000 54100 69100 109000
2020-02-22 22:30 16.68 82400 109000 (2011) 23900 (2003) 47100 23900 24600 35300 35900 44500 54000 54100 69100 109000
2020-02-22 21:30 16.74 82900 109000 (2011) 23900 (2003) 47100 23900 24600 35300 35900 44500 54000 54100 69100 109000
2020-02-22 20:30 16.78 83200 109000 (2011) 23900 (2003) 47100 23900 24600 35300 35900 44500 54000 54100 69100 109000
2020-02-22 19:30 16.76 83000 109000 (2011) 23900 (2003) 47100 23900 24600 35300 35900 44500 54000 54100 69100 109000
2020-02-22 18:30 16.78 83200 109000 (2011) 23900 (2003) 47100 23900 24600 35300 35900 44500 54000 54100 69100 109000
2020-02-22 17:30 16.77 83100 109000 (2011) 23900 (2003) 47100 23900 24600 35300 35900 44500 54000 54100 69100 109000
2020-02-22 16:30 16.77 83100 109000 (2011) 23900 (2003) 47100 23900 24600 35300 35900 44500 54000 54100 69100 109000
2020-02-22 15:30 16.75 83000 109000 (2011) 23900 (2003) 47100 23900 24600 35300 35900 44500 54000 54100 69100 109000
2020-02-22 14:30 16.81 83500 109000 (2011) 23900 (2003) 47100 23900 24600 35300 35900 44500 54000 54100 69100 109000
2020-02-22 13:30 16.80 83400 109000 (2011) 23900 (2003) 47100 23900 24600 35300 35900 44500 54000 54100 69100 109000
2020-02-22 12:30 16.82 83500 109000 (2011) 23900 (2003) 47100 23900 24600 35300 35900 44500 54000 54100 69100 109000
2020-02-22 11:30 16.82 83500 109000 (2011) 23900 (2003) 47100 23900 24600 35300 35900 44500 54000 54100 69100 109000
2020-02-22 10:30 16.83 83600 109000 (2011) 23900 (2003) 47100 23900 24600 35300 35900 44500 54000 54100 69100 109000
2020-02-22 09:30 16.87 84000 109000 (2011) 23900 (2003) 47100 23900 24600 35300 35900 44500 54000 54100 69100 109000
2020-02-22 08:30 16.87 84000 109000 (2011) 23900 (2003) 47100 23900 24600 35300 35900 44500 54000 54100 69100 109000
2020-02-22 07:30 16.88 84000 109000 (2011) 23900 (2003) 47100 23900 24600 35300 35900 44500 54000 54100 69100 109000
2020-02-22 06:30 16.90 84200 109000 (2011) 23900 (2003) 47100 23900 24600 35300 35900 44500 54000 54100 69100 109000
2020-02-22 05:30 16.93 84500 109000 (2011) 23900 (2003) 47100 23900 24600 35300 35900 44500 54000 54100 69100 109000
2020-02-22 04:30 16.93 84500 109000 (2011) 23900 (2003) 47100 23900 24600 35300 35900 44500 54000 54100 69100 109000
2020-02-22 03:30 16.92 84400 109000 (2011) 23900 (2003) 47100 23900 24600 35300 35900 44500 54000 54100 69100 109000
2020-02-22 02:30 16.92 84400 109000 (2011) 23900 (2003) 47100 23900 24600 35300 35900 44500 54000 54100 69100 109000
2020-02-22 01:30 16.97 84800 109000 (2011) 23900 (2003) 47100 23900 24600 35300 35900 44500 54000 54100 69100 109000
2020-02-22 00:30 17.01 85200 109000 (2011) 23900 (2003) 47100 23900 24600 35300 35900 44500 54000 54100 69100 109000
2020-02-21 23:30 16.98 84900 125000 (2011) 23200 (2003) 47300 23200 25300 27400 32800 43200 54700 63100 66400 125000
2020-02-21 22:30 16.96 84700 125000 (2011) 23200 (2003) 47300 23200 25300 27400 32800 43200 54700 63100 66400 125000
2020-02-21 21:30 16.99 85000 125000 (2011) 23200 (2003) 47300 23200 25300 27400 32800 43200 54700 63100 66400 125000
2020-02-21 20:30 16.98 84900 125000 (2011) 23200 (2003) 47300 23200 25300 27400 32800 43200 54700 63100 66400 125000
2020-02-21 19:30 16.99 85000 125000 (2011) 23200 (2003) 47300 23200 25300 27400 32800 43200 54700 63100 66400 125000
2020-02-21 18:30 17.00 85100 125000 (2011) 23200 (2003) 47300 23200 25300 27400 32800 43200 54700 63100 66400 125000
2020-02-21 17:30 16.95 84600 125000 (2011) 23200 (2003) 47300 23200 25300 27400 32800 43200 54700 63100 66400 125000
2020-02-21 16:30 16.91 84300 125000 (2011) 23200 (2003) 47300 23200 25300 27400 32800 43200 54700 63100 66400 125000
2020-02-21 15:30 16.89 84100 125000 (2011) 23200 (2003) 47300 23200 25300 27400 32800 43200 54700 63100 66400 125000
2020-02-21 14:30 16.91 84300 125000 (2011) 23200 (2003) 47300 23200 25300 27400 32800 43200 54700 63100 66400 125000
2020-02-21 13:30 16.90 84200 125000 (2011) 23200 (2003) 47300 23200 25300 27400 32800 43200 54700 63100 66400 125000
2020-02-21 12:30 16.92 84400 125000 (2011) 23200 (2003) 47300 23200 25300 27400 32800 43200 54700 63100 66400 125000
2020-02-21 11:30 16.91 84300 125000 (2011) 23200 (2003) 47300 23200 25300 27400 32800 43200 54700 63100 66400 125000
2020-02-21 10:30 16.91 84300 125000 (2011) 23200 (2003) 47300 23200 25300 27400 32800 43200 54700 63100 66400 125000
2020-02-21 09:30 16.92 84400 125000 (2011) 23200 (2003) 47300 23200 25300 27400 32800 43200 54700 63100 66400 125000
2020-02-21 08:30 16.95 84600 125000 (2011) 23200 (2003) 47300 23200 25300 27400 32800 43200 54700 63100 66400 125000
2020-02-21 07:30 16.96 84700 125000 (2011) 23200 (2003) 47300 23200 25300 27400 32800 43200 54700 63100 66400 125000
2020-02-21 06:30 17.01 85200 125000 (2011) 23200 (2003) 47300 23200 25300 27400 32800 43200 54700 63100 66400 125000
2020-02-21 05:30 17.01 85200 125000 (2011) 23200 (2003) 47300 23200 25300 27400 32800 43200 54700 63100 66400 125000
2020-02-21 04:30 17.01 85200 125000 (2011) 23200 (2003) 47300 23200 25300 27400 32800 43200 54700 63100 66400 125000
2020-02-21 03:30 17.03 85300 125000 (2011) 23200 (2003) 47300 23200 25300 27400 32800 43200 54700 63100 66400 125000
2020-02-21 02:30 17.02 85200 125000 (2011) 23200 (2003) 47300 23200 25300 27400 32800 43200 54700 63100 66400 125000
2020-02-21 01:30 17.03 85300 125000 (2011) 23200 (2003) 47300 23200 25300 27400 32800 43200 54700 63100 66400 125000
2020-02-21 00:30 17.02 85200 125000 (2011) 23200 (2003) 47300 23200 25300 27400 32800 43200 54700 63100 66400 125000
2020-02-20 23:30 17.01 85200 143000 (2011) 22600 (2003) 46200 22600 25000 26300 27800 40000 55700 56400 72300 143000
2020-02-20 22:30 17.02 85200 143000 (2011) 22600 (2003) 46200 22600 25000 26300 27800 40000 55700 56400 72300 143000
2020-02-20 21:30 17.02 85200 143000 (2011) 22600 (2003) 46200 22600 25000 26300 27800 40000 55700 56400 72300 143000
2020-02-20 20:30 17.00 85100 143000 (2011) 22600 (2003) 46200 22600 25000 26300 27800 40000 55700 56400 72300 143000
2020-02-20 19:30 17.00 85100 143000 (2011) 22600 (2003) 46200 22600 25000 26300 27800 40000 55700 56400 72300 143000
2020-02-20 18:30 16.96 84700 143000 (2011) 22600 (2003) 46200 22600 25000 26300 27800 40000 55700 56400 72300 143000
2020-02-20 17:30 16.96 84700 143000 (2011) 22600 (2003) 46200 22600 25000 26300 27800 40000 55700 56400 72300 143000
2020-02-20 16:30 16.94 84600 143000 (2011) 22600 (2003) 46200 22600 25000 26300 27800 40000 55700 56400 72300 143000
2020-02-20 15:30 16.93 84500 143000 (2011) 22600 (2003) 46200 22600 25000 26300 27800 40000 55700 56400 72300 143000
2020-02-20 14:30 16.92 84400 143000 (2011) 22600 (2003) 46200 22600 25000 26300 27800 40000 55700 56400 72300 143000
2020-02-20 13:30 16.87 84000 143000 (2011) 22600 (2003) 46200 22600 25000 26300 27800 40000 55700 56400 72300 143000
2020-02-20 12:30 16.85 83800 143000 (2011) 22600 (2003) 46200 22600 25000 26300 27800 40000 55700 56400 72300 143000
2020-02-20 11:30 16.88 84000 143000 (2011) 22600 (2003) 46200 22600 25000 26300 27800 40000 55700 56400 72300 143000
2020-02-20 10:30 16.82 83500 143000 (2011) 22600 (2003) 46200 22600 25000 26300 27800 40000 55700 56400 72300 143000
2020-02-20 09:30 16.86 83900 143000 (2011) 22600 (2003) 46200 22600 25000 26300 27800 40000 55700 56400 72300 143000
2020-02-20 08:30 16.84 83700 143000 (2011) 22600 (2003) 46200 22600 25000 26300 27800 40000 55700 56400 72300 143000
2020-02-20 07:30 16.83 83600 143000 (2011) 22600 (2003) 46200 22600 25000 26300 27800 40000 55700 56400 72300 143000
2020-02-20 06:30 16.82 83500 143000 (2011) 22600 (2003) 46200 22600 25000 26300 27800 40000 55700 56400 72300 143000
2020-02-20 05:30 16.76 83000 143000 (2011) 22600 (2003) 46200 22600 25000 26300 27800 40000 55700 56400 72300 143000
2020-02-20 04:30 16.74 82900 143000 (2011) 22600 (2003) 46200 22600 25000 26300 27800 40000 55700 56400 72300 143000
2020-02-20 03:30 16.71 82600 143000 (2011) 22600 (2003) 46200 22600 25000 26300 27800 40000 55700 56400 72300 143000
2020-02-20 02:30 16.68 82400 143000 (2011) 22600 (2003) 46200 22600 25000 26300 27800 40000 55700 56400 72300 143000
2020-02-20 01:30 16.65 82100 143000 (2011) 22600 (2003) 46200 22600 25000 26300 27800 40000 55700 56400 72300 143000
2020-02-20 00:30 16.63 82000 143000 (2011) 22600 (2003) 46200 22600 25000 26300 27800 40000 55700 56400 72300 143000
2020-02-19 23:30 16.56 81400 128000 (2011) 22300 (2003) 45600 22300 24200 25800 26200 39900 56900 60500 78600 128000
2020-02-19 22:30 16.57 81500 128000 (2011) 22300 (2003) 45600 22300 24200 25800 26200 39900 56900 60500 78600 128000
2020-02-19 21:30 16.52 81000 128000 (2011) 22300 (2003) 45600 22300 24200 25800 26200 39900 56900 60500 78600 128000
2020-02-19 20:30 16.49 80800 128000 (2011) 22300 (2003) 45600 22300 24200 25800 26200 39900 56900 60500 78600 128000
2020-02-19 19:30 16.43 80300 128000 (2011) 22300 (2003) 45600 22300 24200 25800 26200 39900 56900 60500 78600 128000
2020-02-19 18:30 16.41 80100 128000 (2011) 22300 (2003) 45600 22300 24200 25800 26200 39900 56900 60500 78600 128000
2020-02-19 17:30 16.34 79600 128000 (2011) 22300 (2003) 45600 22300 24200 25800 26200 39900 56900 60500 78600 128000
2020-02-19 16:30 16.31 79300 128000 (2011) 22300 (2003) 45600 22300 24200 25800 26200 39900 56900 60500 78600 128000
2020-02-19 15:30 16.24 78800 128000 (2011) 22300 (2003) 45600 22300 24200 25800 26200 39900 56900 60500 78600 128000
2020-02-19 14:30 16.23 78700 128000 (2011) 22300 (2003) 45600 22300 24200 25800 26200 39900 56900 60500 78600 128000
2020-02-19 13:30 16.17 78200 128000 (2011) 22300 (2003) 45600 22300 24200 25800 26200 39900 56900 60500 78600 128000
2020-02-19 12:30 16.12 77800 128000 (2011) 22300 (2003) 45600 22300 24200 25800 26200 39900 56900 60500 78600 128000
2020-02-19 11:30 16.09 77600 128000 (2011) 22300 (2003) 45600 22300 24200 25800 26200 39900 56900 60500 78600 128000
2020-02-19 10:30 16.05 77300 128000 (2011) 22300 (2003) 45600 22300 24200 25800 26200 39900 56900 60500 78600 128000
2020-02-19 09:30 16.01 76900 128000 (2011) 22300 (2003) 45600 22300 24200 25800 26200 39900 56900 60500 78600 128000
2020-02-19 08:30 15.99 76800 128000 (2011) 22300 (2003) 45600 22300 24200 25800 26200 39900 56900 60500 78600 128000
2020-02-19 07:30 15.96 76500 128000 (2011) 22300 (2003) 45600 22300 24200 25800 26200 39900 56900 60500 78600 128000
2020-02-19 06:30 15.93 76300 128000 (2011) 22300 (2003) 45600 22300 24200 25800 26200 39900 56900 60500 78600 128000
2020-02-19 05:30 15.90 76100 128000 (2011) 22300 (2003) 45600 22300 24200 25800 26200 39900 56900 60500 78600 128000
2020-02-19 04:30 15.87 75800 128000 (2011) 22300 (2003) 45600 22300 24200 25800 26200 39900 56900 60500 78600 128000
2020-02-19 03:30 15.84 75600 128000 (2011) 22300 (2003) 45600 22300 24200 25800 26200 39900 56900 60500 78600 128000
2020-02-19 02:30 15.80 75300 128000 (2011) 22300 (2003) 45600 22300 24200 25800 26200 39900 56900 60500 78600 128000
2020-02-19 01:30 15.77 75100 128000 (2011) 22300 (2003) 45600 22300 24200 25800 26200 39900 56900 60500 78600 128000
2020-02-19 00:30 15.76 75000 128000 (2011) 22300 (2003) 45600 22300 24200 25800 26200 39900 56900 60500 78600 128000
2020-02-18 23:30 15.73 74800 118000 (2011) 22900 (2003) 45900 22900 23900 26200 26200 40300 57700 59700 84200 118000
2020-02-18 22:30 15.69 74400 118000 (2011) 22900 (2003) 45900 22900 23900 26200 26200 40300 57700 59700 84200 118000
2020-02-18 21:30 15.64 74100 118000 (2011) 22900 (2003) 45900 22900 23900 26200 26200 40300 57700 59700 84200 118000
2020-02-18 20:30 15.61 73800 118000 (2011) 22900 (2003) 45900 22900 23900 26200 26200 40300 57700 59700 84200 118000
2020-02-18 19:30 15.59 73700 118000 (2011) 22900 (2003) 45900 22900 23900 26200 26200 40300 57700 59700 84200 118000
2020-02-18 18:30 15.55 73400 118000 (2011) 22900 (2003) 45900 22900 23900 26200 26200 40300 57700 59700 84200 118000
2020-02-18 17:30 15.53 73200 118000 (2011) 22900 (2003) 45900 22900 23900 26200 26200 40300 57700 59700 84200 118000
2020-02-18 16:30 15.51 73100 118000 (2011) 22900 (2003) 45900 22900 23900 26200 26200 40300 57700 59700 84200 118000
2020-02-18 15:30 15.48 72800 118000 (2011) 22900 (2003) 45900 22900 23900 26200 26200 40300 57700 59700 84200 118000
2020-02-18 14:30 15.46 72700 118000 (2011) 22900 (2003) 45900 22900 23900 26200 26200 40300 57700 59700 84200 118000
2020-02-18 13:30 15.44 72500 118000 (2011) 22900 (2003) 45900 22900 23900 26200 26200 40300 57700 59700 84200 118000
2020-02-18 12:30 15.43 72500 118000 (2011) 22900 (2003) 45900 22900 23900 26200 26200 40300 57700 59700 84200 118000
2020-02-18 11:30 15.38 72100 118000 (2011) 22900 (2003) 45900 22900 23900 26200 26200 40300 57700 59700 84200 118000
2020-02-18 10:30 15.40 72200 118000 (2011) 22900 (2003) 45900 22900 23900 26200 26200 40300 57700 59700 84200 118000
2020-02-18 09:30 15.39 72200 118000 (2011) 22900 (2003) 45900 22900 23900 26200 26200 40300 57700 59700 84200 118000
2020-02-18 08:30 15.41 72300 118000 (2011) 22900 (2003) 45900 22900 23900 26200 26200 40300 57700 59700 84200 118000
2020-02-18 07:30 15.41 72300 118000 (2011) 22900 (2003) 45900 22900 23900 26200 26200 40300 57700 59700 84200 118000
2020-02-18 06:30 15.42 72400 118000 (2011) 22900 (2003) 45900 22900 23900 26200 26200 40300 57700 59700 84200 118000
2020-02-18 05:30 15.37 72000 118000 (2011) 22900 (2003) 45900 22900 23900 26200 26200 40300 57700 59700 84200 118000
2020-02-18 04:30 15.37 72000 118000 (2011) 22900 (2003) 45900 22900 23900 26200 26200 40300 57700 59700 84200 118000
2020-02-18 03:30 15.38 72100 118000 (2011) 22900 (2003) 45900 22900 23900 26200 26200 40300 57700 59700 84200 118000
2020-02-18 02:30 15.39 72200 118000 (2011) 22900 (2003) 45900 22900 23900 26200 26200 40300 57700 59700 84200 118000
2020-02-18 01:30 15.36 71900 118000 (2011) 22900 (2003) 45900 22900 23900 26200 26200 40300 57700 59700 84200 118000
2020-02-18 00:30 15.37 72000 118000 (2011) 22900 (2003) 45900 22900 23900 26200 26200 40300 57700 59700 84200 118000

A total of 189 rows are displayed for years 2001 through 2019.